Time;durP1;ratioP1;P1;durP2;ratioP2;P2;SDS_P1;SDS_P2;PMS_P1;PMS_P2;Temp;Humidity;BMP_temperature;BMP_pressure;BME280_temperature;BME280_humidity;BME280_pressure;Samples;Min_cycle;Max_cycle;Signal;HPM_P1;HPM_P2
2022/03/08 00:01:21;;;;;;;4.30;2.50;;;;;;;-0.96;80.45;98675.77;104473;1275;72607;-28
2022/03/08 00:03:51;;;;;;;2.40;1.90;;;;;;;-0.91;79.78;98676.45;104740;1273;61141;-28
2022/03/08 00:06:21;;;;;;;3.70;2.10;;;;;;;-1.18;80.80;98675.93;104633;1274;61215;-28
2022/03/08 00:08:51;;;;;;;4.00;2.50;;;;;;;-1.17;81.03;98679.14;104810;1273;73806;-29
2022/03/08 00:11:21;;;;;;;4.60;2.60;;;;;;;-1.30;81.46;98671.98;104585;1274;74663;-28
2022/03/08 00:13:51;;;;;;;5.10;2.30;;;;;;;-1.50;82.65;98675.82;105059;1273;72887;-28
2022/03/08 00:16:21;;;;;;;4.90;2.80;;;;;;;-1.53;82.90;98673.03;105105;1273;62578;-28
2022/03/08 00:18:50;;;;;;;3.90;2.10;;;;;;;-1.11;81.87;98674.00;104797;1273;61099;-28
2022/03/08 00:21:21;;;;;;;4.80;2.20;;;;;;;-0.82;80.14;98666.86;104634;1273;74556;-28
2022/03/08 00:23:50;;;;;;;4.50;2.30;;;;;;;-0.81;79.94;98663.04;104766;1273;73529;-28
2022/03/08 00:26:19;;;;;;;4.10;2.00;;;;;;;-1.14;81.17;98666.43;104835;1273;73066;-30
2022/03/08 00:28:49;;;;;;;3.20;1.70;;;;;;;-1.29;82.04;98665.33;104972;1274;61148;-28
2022/03/08 00:31:19;;;;;;;4.50;2.10;;;;;;;-1.36;82.43;98664.72;104972;1273;61078;-28
2022/03/08 00:33:49;;;;;;;3.70;2.40;;;;;;;-1.18;81.93;98664.69;104863;1273;74044;-28
2022/03/08 00:36:18;;;;;;;3.80;2.60;;;;;;;-0.62;79.95;98660.73;104791;1273;74615;-30
2022/03/08 00:38:47;;;;;;;3.70;2.50;;;;;;;-0.70;79.71;98659.53;104873;1273;71773;-28
2022/03/08 00:41:17;;;;;;;3.50;1.90;;;;;;;-0.82;80.48;98662.42;104814;1274;62608;-28
2022/03/08 00:43:46;;;;;;;6.50;3.90;;;;;;;-0.90;80.68;98657.09;104666;1273;61118;-28
2022/03/08 00:46:16;;;;;;;5.00;2.40;;;;;;;-1.07;81.35;98654.55;104777;1273;72037;-29
2022/03/08 00:48:45;;;;;;;6.50;2.60;;;;;;;-1.26;82.19;98652.27;104973;1273;74328;-28
2022/03/08 00:51:15;;;;;;;6.10;1.90;;;;;;;-1.12;82.33;98652.36;105020;1273;72999;-28
2022/03/08 00:53:48;;;;;;;4.60;3.10;;;;;;;-0.75;80.87;98650.91;104986;1273;61056;-28
2022/03/08 00:56:18;;;;;;;3.80;2.10;;;;;;;-0.60;80.15;98647.89;104635;1273;61205;-28
2022/03/08 00:58:47;;;;;;;4.00;2.90;;;;;;;-0.59;80.07;98653.14;104759;1273;74039;-28
2022/03/08 01:01:17;;;;;;;4.10;1.90;;;;;;;-1.09;82.03;98649.91;104761;1273;73426;-28
2022/03/08 01:03:48;;;;;;;4.60;2.90;;;;;;;-1.23;82.70;98648.19;104651;1273;71406;-28
2022/03/08 01:06:17;;;;;;;3.20;2.00;;;;;;;-1.26;83.46;98642.19;104691;1273;60950;-28
2022/03/08 01:08:47;;;;;;;3.60;2.00;;;;;;;-1.01;83.53;98644.28;104764;1273;61099;-28
2022/03/08 01:11:17;;;;;;;3.20;2.20;;;;;;;-0.87;83.25;98645.73;104701;1273;73861;-29
2022/03/08 01:13:47;;;;;;;4.70;2.50;;;;;;;-0.96;83.29;98643.89;104743;1273;73028;-28
2022/03/08 01:16:16;;;;;;;4.60;2.30;;;;;;;-1.21;84.01;98641.98;104752;1273;71581;-28
2022/03/08 01:18:48;;;;;;;3.20;2.10;;;;;;;-1.33;84.76;98637.17;104628;1273;61174;-28
2022/03/08 01:21:17;;;;;;;2.70;1.40;;;;;;;-1.23;84.45;98638.02;104841;1273;61170;-28
2022/03/08 01:23:46;;;;;;;3.50;2.10;;;;;;;-0.73;82.53;98640.40;104718;1273;74220;-28
2022/03/08 01:26:16;;;;;;;2.60;1.90;;;;;;;-0.74;82.22;98642.99;104747;1273;74085;-28
2022/03/08 01:28:45;;;;;;;5.90;2.20;;;;;;;-1.02;82.82;98643.30;104762;1273;71597;-28
2022/03/08 01:31:15;;;;;;;4.20;2.80;;;;;;;-1.06;83.04;98639.70;105119;1273;61035;-28
2022/03/08 01:33:44;;;;;;;3.20;2.10;;;;;;;-1.31;83.44;98639.81;105103;1273;61147;-28
2022/03/08 01:36:14;;;;;;;2.60;1.80;;;;;;;-1.16;83.15;98639.41;105032;1273;72783;-28
2022/03/08 01:38:44;;;;;;;4.30;2.20;;;;;;;-0.70;81.23;98640.80;105053;1273;74321;-28
2022/03/08 01:41:13;;;;;;;3.20;1.70;;;;;;;-0.84;81.50;98639.85;104843;1273;72763;-28
2022/03/08 01:43:45;;;;;;;4.30;2.20;;;;;;;-0.95;81.86;98642.30;104916;1273;61170;-28
2022/03/08 01:46:15;;;;;;;3.50;1.70;;;;;;;-1.06;82.53;98641.74;105120;1273;61076;-28
2022/03/08 01:48:45;;;;;;;2.50;1.90;;;;;;;-1.14;82.66;98637.98;104621;1273;74051;-28
2022/03/08 01:51:14;;;;;;;4.30;2.60;;;;;;;-1.06;82.37;98641.05;104472;1273;74494;-28
2022/03/08 01:53:44;;;;;;;5.60;2.20;;;;;;;-0.70;80.98;98643.70;104566;1273;71815;-28
2022/03/08 01:56:14;;;;;;;3.70;2.40;;;;;;;-0.64;80.64;98637.80;104553;1274;61166;-28
2022/03/08 01:58:44;;;;;;;2.80;1.70;;;;;;;-0.79;81.20;98640.96;105137;1273;61010;-28
2022/03/08 02:01:14;;;;;;;2.40;1.70;;;;;;;-0.89;81.33;98639.21;104549;1273;652809;-29
2022/03/08 02:03:44;;;;;;;4.20;2.20;;;;;;;-1.08;82.29;98640.64;104782;1273;73730;-28
2022/03/08 02:06:13;;;;;;;3.60;1.60;;;;;;;-1.19;82.64;98637.65;105125;1273;72807;-28
2022/03/08 02:08:43;;;;;;;2.70;1.70;;;;;;;-0.75;81.63;98635.86;104688;1272;61071;-28
2022/03/08 02:11:13;;;;;;;2.60;2.00;;;;;;;-0.48;80.05;98632.88;104792;1273;61110;-28
2022/03/08 02:13:50;;;;;;;3.30;1.70;;;;;;;-0.58;80.09;98638.42;104866;1274;74060;-29
2022/03/08 02:16:19;;;;;;;4.40;2.30;;;;;;;-0.71;80.54;98636.27;105123;1273;74523;-28
2022/03/08 02:18:49;;;;;;;4.10;1.60;;;;;;;-1.05;81.43;98636.08;105047;1273;71906;-28
2022/03/08 02:21:20;;;;;;;3.40;1.80;;;;;;;-1.33;82.39;98633.77;104780;1273;60986;-28
2022/03/08 02:23:49;;;;;;;7.10;2.50;;;;;;;-0.95;81.55;98634.14;105068;1273;61097;-28
2022/03/08 02:26:20;;;;;;;2.60;2.00;;;;;;;-0.82;80.45;98633.78;105139;1273;72787;-29
2022/03/08 02:28:51;;;;;;;1.70;1.30;;;;;;;-0.72;80.00;98636.77;104680;1271;74538;-28
2022/03/08 02:31:20;;;;;;;1.90;1.60;;;;;;;-0.96;80.90;98636.91;104709;1273;73052;-28
2022/03/08 02:33:50;;;;;;;3.90;2.30;;;;;;;-1.20;82.13;98641.10;104672;1273;61590;-27
2022/03/08 02:36:19;;;;;;;2.00;1.60;;;;;;;-1.09;82.01;98643.58;104771;1273;61097;-28
2022/03/08 02:38:49;;;;;;;6.60;1.90;;;;;;;-0.72;80.83;98641.07;104736;1273;73780;-28
2022/03/08 02:41:18;;;;;;;3.70;1.80;;;;;;;-0.55;79.85;98640.52;104753;1273;73221;-29
2022/03/08 02:43:47;;;;;;;3.00;2.00;;;;;;;-0.64;79.86;98642.41;104783;1273;71651;-28
2022/03/08 02:46:17;;;;;;;2.60;1.90;;;;;;;-0.80;80.55;98640.02;104585;1273;61010;-28
2022/03/08 02:48:47;;;;;;;4.40;1.70;;;;;;;-1.02;81.31;98644.98;104741;1273;61145;-28
2022/03/08 02:51:17;;;;;;;1.40;1.30;;;;;;;-1.22;82.41;98643.23;104813;1273;72763;-29
2022/03/08 02:53:46;;;;;;;2.60;1.50;;;;;;;-0.93;81.56;98642.09;104843;1273;73724;-28
2022/03/08 02:56:18;;;;;;;4.90;2.00;;;;;;;-0.58;80.20;98647.65;104984;1273;72752;-28
2022/03/08 02:58:47;;;;;;;2.70;1.40;;;;;;;-0.57;79.67;98648.45;105101;1273;61050;-28
2022/03/08 03:01:16;;;;;;;2.10;1.40;;;;;;;-0.78;80.53;98653.56;105076;1273;61112;-28
2022/03/08 03:03:46;;;;;;;3.70;2.30;;;;;;;-0.89;80.85;98650.95;105147;1273;72859;-29
2022/03/08 03:06:15;;;;;;;3.20;2.00;;;;;;;-1.09;81.68;98651.76;105006;1273;75185;-28
2022/03/08 03:08:44;;;;;;;2.50;1.70;;;;;;;-1.16;82.17;98653.71;104735;1274;72843;-28
2022/03/08 03:11:14;;;;;;;2.90;1.70;;;;;;;-0.84;81.20;98651.92;104865;1273;61013;-28
2022/03/08 03:13:44;;;;;;;2.90;1.90;;;;;;;-0.71;79.99;98656.73;105091;1273;61023;-28
2022/03/08 03:16:13;;;;;;;2.40;1.90;;;;;;;-0.89;80.68;98655.20;104707;1273;73796;-29
2022/03/08 03:18:43;;;;;;;2.80;2.10;;;;;;;-1.01;81.24;98657.05;104629;1273;74334;-28
2022/03/08 03:21:12;;;;;;;2.90;1.70;;;;;;;-1.12;81.63;98658.70;104644;1273;73034;-28
2022/03/08 03:23:41;;;;;;;4.20;2.00;;;;;;;-1.27;82.39;98656.53;104714;1273;61461;-28
2022/03/08 03:26:10;;;;;;;4.90;2.00;;;;;;;-0.97;81.55;98657.56;104775;1273;61134;-28
2022/03/08 03:28:40;;;;;;;2.60;1.80;;;;;;;-0.75;80.35;98661.47;104954;1272;71597;-28
2022/03/08 03:31:09;;;;;;;3.30;2.70;;;;;;;-0.77;80.03;98655.75;104806;1273;74274;-28
2022/03/08 03:33:38;;;;;;;2.70;2.00;;;;;;;-0.95;80.68;98655.64;104798;1273;71595;-28
2022/03/08 03:36:07;;;;;;;3.80;2.20;;;;;;;-1.13;81.32;98658.23;104801;1273;61152;-28
2022/03/08 03:38:37;;;;;;;3.10;1.60;;;;;;;-1.31;82.12;98656.86;104649;1273;61135;-28
2022/03/08 03:41:06;;;;;;;2.80;2.00;;;;;;;-1.06;81.37;98658.62;104668;1273;73797;-28
2022/03/08 03:43:36;;;;;;;5.80;2.40;;;;;;;-0.95;80.43;98661.92;104986;1272;74542;-29
2022/03/08 03:46:07;;;;;;;3.50;2.20;;;;;;;-0.82;79.93;98661.39;104966;1273;70355;-28
2022/03/08 03:48:37;;;;;;;4.90;3.00;;;;;;;-0.98;80.48;98665.30;104795;1273;61100;-30
2022/03/08 03:51:06;;;;;;;2.60;1.10;;;;;;;-1.22;81.19;98662.30;104764;1273;61123;-28
2022/03/08 03:53:35;;;;;;;3.20;2.50;;;;;;;-1.36;81.66;98661.14;104799;1273;71953;-28
2022/03/08 03:56:04;;;;;;;3.00;2.10;;;;;;;-1.37;81.94;98661.86;104727;1273;73446;-28
2022/03/08 03:58:34;;;;;;;2.50;1.90;;;;;;;-0.98;80.46;98660.16;104786;1273;70547;-28
2022/03/08 04:01:04;;;;;;;2.60;2.10;;;;;;;-0.88;79.94;98659.27;104763;1272;61064;-28
2022/03/08 04:03:34;;;;;;;2.70;1.90;;;;;;;-1.09;80.40;98666.23;104582;1273;61234;-28
2022/03/08 04:06:03;;;;;;;2.80;1.80;;;;;;;-1.33;81.46;98668.71;105025;1272;74153;-28
2022/03/08 04:08:33;;;;;;;2.00;1.50;;;;;;;-1.40;81.64;98672.70;104944;1273;73311;-28
2022/03/08 04:11:05;;;;;;;4.10;1.80;;;;;;;-1.29;81.67;98672.14;104572;1273;72995;-28
2022/03/08 04:13:35;;;;;;;3.60;1.90;;;;;;;-0.91;80.17;98669.09;104766;1273;61178;-28
2022/03/08 04:16:05;;;;;;;2.80;1.90;;;;;;;-0.88;79.33;98672.55;104775;1273;61145;-28
2022/03/08 04:18:36;;;;;;;5.20;2.50;;;;;;;-0.99;79.91;98671.79;104647;1273;74150;-28
2022/03/08 04:21:05;;;;;;;2.80;1.90;;;;;;;-1.21;80.53;98672.66;104668;1272;74232;-28
2022/03/08 04:23:34;;;;;;;3.10;2.20;;;;;;;-1.37;81.25;98672.26;104754;1273;73091;-28
2022/03/08 04:26:03;;;;;;;2.60;2.30;;;;;;;-1.32;81.29;98670.67;104793;1273;61393;-28
2022/03/08 04:28:33;;;;;;;1.80;1.10;;;;;;;-0.99;79.91;98678.61;104654;1273;61165;-28
2022/03/08 04:31:02;;;;;;;3.50;2.50;;;;;;;-0.78;79.02;98677.94;104634;1273;71838;-28
2022/03/08 04:33:32;;;;;;;4.40;2.80;;;;;;;-0.98;79.59;98682.16;104632;1273;72639;-28
2022/03/08 04:36:03;;;;;;;3.20;2.10;;;;;;;-1.20;80.68;98678.42;104906;1273;72933;-28
2022/03/08 04:38:32;;;;;;;3.60;2.20;;;;;;;-1.36;81.42;98680.57;104981;1273;61171;-28
2022/03/08 04:41:05;;;;;;;1.70;1.60;;;;;;;-1.43;81.74;98682.34;105119;1273;61064;-28
2022/03/08 04:43:35;;;;;;;3.30;2.00;;;;;;;-1.08;80.51;98687.66;105033;1273;72651;-28
2022/03/08 04:46:04;;;;;;;2.90;1.70;;;;;;;-1.09;80.04;98685.14;105126;1273;74704;-28
2022/03/08 04:48:34;;;;;;;2.40;1.70;;;;;;;-1.17;80.06;98687.47;105098;1273;72853;-28
2022/03/08 04:51:03;;;;;;;2.60;2.00;;;;;;;-1.28;80.49;98688.11;104850;1273;61047;-28
2022/03/08 04:53:34;;;;;;;2.90;1.90;;;;;;;-1.36;80.84;98692.48;104802;1273;60972;-28
2022/03/08 04:56:03;;;;;;;3.90;1.90;;;;;;;-1.37;80.86;98687.40;104646;1273;72708;-28
2022/03/08 04:58:33;;;;;;;2.00;1.40;;;;;;;-1.03;80.06;98694.63;104780;1273;74290;-28
2022/03/08 05:01:03;;;;;;;1.60;1.40;;;;;;;-0.84;78.89;98697.77;104619;1274;71564;-28
2022/03/08 05:03:32;;;;;;;2.00;1.60;;;;;;;-0.93;79.28;98701.55;105106;1273;61209;-28
2022/03/08 05:06:08;;;;;;;1.90;1.60;;;;;;;-0.94;79.11;98703.96;104980;1273;61161;-28
2022/03/08 05:08:40;;;;;;;4.30;1.90;;;;;;;-1.08;79.60;98703.34;104638;1273;74145;-28
2022/03/08 05:11:09;;;;;;;1.20;0.90;;;;;;;-1.23;80.02;98704.77;104590;1273;74627;-28
2022/03/08 05:13:39;;;;;;;4.20;1.90;;;;;;;-0.82;79.29;98708.60;104635;1273;71948;-28
2022/03/08 05:16:10;;;;;;;3.70;1.90;;;;;;;-0.41;77.26;98711.73;105066;1273;61029;-28
2022/03/08 05:18:39;;;;;;;4.10;2.50;;;;;;;-0.62;77.76;98711.23;104849;1273;61113;-28
2022/03/08 05:21:09;;;;;;;4.70;2.40;;;;;;;-1.06;79.35;98716.35;104910;1273;74351;-28
2022/03/08 05:23:39;;;;;;;3.80;2.30;;;;;;;-1.12;80.01;98716.92;104812;1273;72908;-28
2022/03/08 05:26:08;;;;;;;3.60;2.30;;;;;;;-1.25;80.67;98715.23;104709;1273;71400;-28
2022/03/08 05:28:38;;;;;;;4.50;2.10;;;;;;;-1.37;81.06;98718.05;105046;1273;61242;-29
2022/03/08 05:31:07;;;;;;;5.90;3.00;;;;;;;-0.99;79.44;98719.83;104949;1273;61093;-30
2022/03/08 05:33:37;;;;;;;8.70;3.30;;;;;;;-0.97;78.84;98719.93;104920;1273;74049;-28
2022/03/08 05:36:07;;;;;;;7.20;3.00;;;;;;;-0.89;78.49;98725.25;104919;1274;73248;-29
2022/03/08 05:38:37;;;;;;;6.90;2.80;;;;;;;-1.15;78.54;98724.56;104801;1273;71572;-29
2022/03/08 05:41:06;;;;;;;5.60;2.80;;;;;;;-1.36;79.13;98725.85;104926;1272;61031;-29
2022/03/08 05:43:36;;;;;;;5.40;1.90;;;;;;;-1.41;78.94;98731.16;104997;1273;61047;-31
2022/03/08 05:46:05;;;;;;;1.90;1.60;;;;;;;-1.20;78.01;98731.54;105069;1273;73001;-31
2022/03/08 05:48:35;;;;;;;3.20;2.20;;;;;;;-0.78;76.62;98733.52;105157;1273;73611;-31
2022/03/08 05:51:04;;;;;;;3.80;2.60;;;;;;;-0.62;76.00;98730.52;104915;1273;72804;-32
2022/03/08 05:53:35;;;;;;;3.10;2.20;;;;;;;-0.83;76.59;98734.88;104883;1273;61029;-30
2022/03/08 05:56:05;;;;;;;3.00;1.90;;;;;;;-0.76;75.51;98736.67;105126;1273;61050;-29
2022/03/08 05:58:35;;;;;;;6.10;2.60;;;;;;;-0.87;74.71;98731.29;105111;1273;72584;-28
2022/03/08 06:01:04;;;;;;;4.50;2.80;;;;;;;-0.86;74.70;98732.82;105150;1273;74610;-28
2022/03/08 06:03:34;;;;;;;2.80;2.20;;;;;;;-1.00;74.93;98730.11;104682;1273;72998;-28
2022/03/08 06:06:04;;;;;;;5.50;2.20;;;;;;;-0.64;74.27;98731.42;104776;1273;61137;-28
2022/03/08 06:08:34;;;;;;;8.70;4.70;;;;;;;-0.32;74.07;98731.81;104648;1273;61118;-28
2022/03/08 06:11:04;;;;;;;12.00;6.50;;;;;;;-0.42;74.50;98726.77;104809;1273;72968;-28
2022/03/08 06:13:34;;;;;;;3.20;2.40;;;;;;;-0.87;74.78;98731.66;104664;1273;74711;-28
2022/03/08 06:16:04;;;;;;;3.60;2.20;;;;;;;-1.31;75.17;98732.33;104866;1273;73063;-29
2022/03/08 06:18:40;;;;;;;4.50;2.10;;;;;;;-1.49;75.42;98732.13;104562;1275;61033;-28
2022/03/08 06:21:10;;;;;;;5.50;3.70;;;;;;;-1.68;75.62;98731.95;104787;1273;61066;-28
2022/03/08 06:23:40;;;;;;;2.90;1.70;;;;;;;-1.68;75.94;98736.39;104781;1272;74294;-28
2022/03/08 06:26:09;;;;;;;2.40;1.60;;;;;;;-1.40;74.24;98735.90;104698;1273;74336;-28
2022/03/08 06:28:38;;;;;;;3.70;2.20;;;;;;;-1.04;72.74;98737.93;104867;1273;72830;-30
2022/03/08 06:31:08;;;;;;;1.60;1.40;;;;;;;-0.91;72.13;98740.33;104664;1273;61180;-28
2022/03/08 06:33:37;;;;;;;2.40;1.90;;;;;;;-1.00;72.50;98744.96;104789;1272;61037;-28
2022/03/08 06:36:07;;;;;;;6.20;4.20;;;;;;;-1.12;71.68;98746.59;104819;1273;71791;-30
2022/03/08 06:38:36;;;;;;;5.80;2.90;;;;;;;-1.16;71.54;98743.00;104853;1273;74815;-28
2022/03/08 06:41:14;;;;;;;4.20;2.30;;;;;;;-1.02;72.07;98745.54;104602;1273;72988;-28
2022/03/08 06:43:43;;;;;;;3.60;2.10;;;;;;;-1.01;72.25;98744.95;104770;1273;61033;-29
2022/03/08 06:46:13;;;;;;;3.20;1.80;;;;;;;-1.06;72.62;98740.89;104795;1273;61007;-29
2022/03/08 06:48:43;;;;;;;3.00;1.90;;;;;;;-1.01;73.17;98738.86;104784;1272;74151;-28
2022/03/08 06:51:14;;;;;;;4.80;3.40;;;;;;;-0.65;72.53;98741.02;104795;1273;74788;-29
2022/03/08 06:53:44;;;;;;;6.60;3.90;;;;;;;-0.12;70.80;98742.43;104684;1273;72639;-27
2022/03/08 06:56:15;;;;;;;14.00;6.90;;;;;;;0.03;69.61;98734.42;104671;1273;61125;-27
2022/03/08 06:58:44;;;;;;;11.00;5.60;;;;;;;0.11;69.82;98735.65;104636;1275;61167;-27
2022/03/08 07:01:15;;;;;;;5.50;2.60;;;;;;;0.24;69.73;98736.64;105107;1273;72823;-28
2022/03/08 07:03:44;;;;;;;2.70;1.70;;;;;;;-0.13;69.98;98732.75;104760;1273;74606;-28
2022/03/08 07:06:14;;;;;;;3.10;1.90;;;;;;;-0.37;70.39;98733.23;104885;1273;71716;-28
2022/03/08 07:08:44;;;;;;;2.90;2.40;;;;;;;-0.23;71.13;98734.70;104807;1273;61612;-28
2022/03/08 07:11:14;;;;;;;3.80;2.20;;;;;;;-0.43;71.37;98734.34;104800;1273;61157;-28
2022/03/08 07:13:43;;;;;;;2.30;1.50;;;;;;;-0.75;71.41;98735.08;104646;1273;73202;-29
2022/03/08 07:16:14;;;;;;;2.40;1.60;;;;;;;-0.81;71.46;98736.52;104789;1273;74613;-27
2022/03/08 07:18:44;;;;;;;5.90;1.50;;;;;;;-0.76;71.06;98737.35;104698;1273;72959;-28
2022/03/08 07:21:14;;;;;;;3.80;2.50;;;;;;;-0.74;71.86;98744.29;104811;1273;61145;-28
2022/03/08 07:23:43;;;;;;;4.80;2.10;;;;;;;-0.45;71.93;98747.54;104721;1274;61216;-28
2022/03/08 07:26:12;;;;;;;2.40;1.60;;;;;;;0.11;69.42;98741.27;105001;1273;73052;-28
2022/03/08 07:28:42;;;;;;;2.40;1.50;;;;;;;-0.03;67.83;98727.68;105021;1273;73402;-28
2022/03/08 07:31:12;;;;;;;2.90;1.90;;;;;;;-0.29;68.71;98738.88;104680;1272;74406;-28
2022/03/08 07:33:44;;;;;;;3.10;1.80;;;;;;;-0.61;68.92;98740.51;104717;1273;61364;-28
2022/03/08 07:36:13;;;;;;;1.80;1.40;;;;;;;-0.62;69.71;98739.20;104804;1273;62045;-28
2022/03/08 07:38:42;;;;;;;3.10;1.80;;;;;;;-0.76;71.06;98738.55;104673;1273;75733;-28
2022/03/08 07:41:11;;;;;;;2.50;1.90;;;;;;;-0.78;70.75;98740.16;104791;1273;76213;-28
2022/03/08 07:43:41;;;;;;;2.70;2.10;;;;;;;-0.78;71.70;98741.36;104804;1273;74445;-28
2022/03/08 07:46:10;;;;;;;3.10;1.70;;;;;;;-0.68;71.39;98736.88;104670;1273;61145;-27
2022/03/08 07:48:42;;;;;;;3.20;1.80;;;;;;;-0.75;70.32;98731.17;104876;1273;62125;-28
2022/03/08 07:51:25;;;;;;;4.20;2.00;;;;;;;-1.00;68.84;98733.16;104791;1273;75515;-28
2022/03/08 07:53:54;;;;;;;4.00;2.30;;;;;;;-1.14;70.10;98732.67;104807;1273;73970;-28
2022/03/08 07:56:23;;;;;;;4.00;2.20;;;;;;;-1.29;70.90;98736.34;104772;1273;73866;-28
2022/03/08 07:58:52;;;;;;;2.40;1.50;;;;;;;-1.01;71.57;98736.63;104677;1273;61228;-28
2022/03/08 08:01:22;;;;;;;1.40;1.20;;;;;;;-0.52;70.53;98738.96;104644;1273;61040;-28
2022/03/08 08:03:56;;;;;;;3.20;1.50;;;;;;;-0.58;70.66;98737.84;104628;1273;75747;-28
2022/03/08 08:06:26;;;;;;;1.60;1.10;;;;;;;-0.95;72.85;98734.51;104448;1273;75991;-28
2022/03/08 08:08:58;;;;;;;3.60;2.20;;;;;;;-1.26;74.51;98739.27;104791;1273;74466;-29
2022/03/08 08:11:27;;;;;;;2.40;1.50;;;;;;;-1.31;74.10;98736.91;104643;1273;61700;-29
2022/03/08 08:13:56;;;;;;;1.80;1.50;;;;;;;-1.34;73.70;98737.03;104627;1273;61141;-27
2022/03/08 08:16:26;;;;;;;1.70;1.20;;;;;;;-1.31;73.97;98741.36;104675;1273;75036;-30
2022/03/08 08:18:58;;;;;;;1.30;1.10;;;;;;;-1.10;73.42;98745.98;104775;1273;73403;-29
2022/03/08 08:21:36;;;;;;;2.30;1.70;;;;;;;-0.67;72.27;98746.52;104750;1271;74426;-28
2022/03/08 08:24:07;;;;;;;3.50;2.00;;;;;;;-0.68;71.78;98740.13;104639;1273;61585;-28
2022/03/08 08:26:42;;;;;;;2.50;1.10;;;;;;;-0.83;71.71;98743.44;104629;1273;61503;-28
2022/03/08 08:29:11;;;;;;;6.70;2.20;;;;;;;-0.59;72.43;98742.66;104752;1273;75801;-28
2022/03/08 08:31:44;;;;;;;;;;;;;;;-0.96;71.20;98739.32;104796;1273;76118;-28
2022/03/08 08:34:15;;;;;;;4.10;2.00;;;;;;;-1.22;71.35;98744.77;104991;1273;74362;-28
2022/03/08 08:36:50;;;;;;;2.50;2.00;;;;;;;-1.25;70.58;98732.60;104589;1273;61094;-28
2022/03/08 08:39:21;;;;;;;3.10;2.00;;;;;;;-1.28;71.54;98740.89;104812;1273;61128;-29
2022/03/08 08:41:51;;;;;;;1.70;1.20;;;;;;;-1.20;71.53;98744.52;104675;1273;75838;-28
2022/03/08 08:44:20;;;;;;;2.80;1.70;;;;;;;-0.94;70.46;98741.13;104829;1273;76105;-28
2022/03/08 08:46:53;;;;;;;3.60;1.80;;;;;;;-0.44;69.24;98739.98;104401;1273;74497;-29
2022/03/08 08:49:25;;;;;;;2.60;1.60;;;;;;;-0.47;68.83;98744.05;105023;1273;61140;-29
2022/03/08 08:52:04;;;;;;;2.10;1.30;;;;;;;-0.61;69.66;98742.20;105108;1273;61135;-28
2022/03/08 08:54:36;;;;;;;2.70;1.40;;;;;;;-0.85;70.97;98748.79;105017;1273;74733;-29
2022/03/08 08:57:09;;;;;;;3.10;1.80;;;;;;;-1.09;72.96;98751.26;104881;1273;74954;-29
2022/03/08 08:59:38;;;;;;;2.00;1.40;;;;;;;-1.01;72.84;98755.22;104881;1273;71917;-30
2022/03/08 09:02:12;;;;;;;2.40;1.60;;;;;;;-1.19;70.38;98747.04;104735;1272;61573;-30
2022/03/08 09:04:43;;;;;;;2.50;1.80;;;;;;;-1.20;71.00;98749.10;104764;1273;61187;-30
2022/03/08 09:07:13;;;;;;;3.60;1.80;;;;;;;-1.26;69.89;98743.17;104815;1272;75562;-29
2022/03/08 09:09:50;;;;;;;2.70;2.00;;;;;;;-1.30;69.82;98747.95;104679;1273;76029;-29
2022/03/08 09:12:20;;;;;;;2.20;1.60;;;;;;;-1.38;69.82;98742.45;104739;1273;75092;-28
2022/03/08 09:14:49;;;;;;;2.80;2.20;;;;;;;-1.37;68.28;98735.27;104854;1273;61338;-28
2022/03/08 09:17:21;;;;;;;5.60;2.20;;;;;;;-1.41;68.74;98740.16;104801;1273;62086;-28
2022/03/08 09:19:57;;;;;;;3.60;2.50;;;;;;;-1.42;70.11;98749.92;104748;1273;76719;-28
2022/03/08 09:22:27;;;;;;;3.20;1.90;;;;;;;-1.08;67.11;98740.83;104694;1273;75882;-28
2022/03/08 09:24:58;;;;;;;16.50;7.70;;;;;;;-0.68;67.12;98748.27;104826;1273;74424;-29
2022/03/08 09:27:31;;;;;;;5.30;1.80;;;;;;;-0.56;67.25;98752.41;104862;1273;61218;-28
2022/03/08 09:30:04;;;;;;;5.20;2.60;;;;;;;-0.86;66.15;98743.88;104747;1273;62120;-28
2022/03/08 09:32:35;;;;;;;4.20;2.50;;;;;;;-0.70;66.43;98749.05;104646;1273;74097;-28
2022/03/08 09:35:07;;;;;;;2.80;1.80;;;;;;;-0.79;65.28;98748.73;105034;1273;76041;-28
2022/03/08 09:37:36;;;;;;;4.30;2.50;;;;;;;-0.86;65.85;98746.80;104597;1274;74524;-28
2022/03/08 09:40:06;;;;;;;1.90;1.50;;;;;;;-1.06;65.79;98749.77;104766;1273;61174;-28
2022/03/08 09:42:38;;;;;;;2.00;1.60;;;;;;;-1.07;65.96;98751.66;104628;1273;62077;-28
2022/03/08 09:45:10;;;;;;;3.40;1.80;;;;;;;-0.96;66.33;98754.17;104897;1273;74136;-28
2022/03/08 09:47:44;;;;;;;2.10;1.40;;;;;;;-0.97;66.31;98749.59;104943;1273;76002;-28
2022/03/08 09:50:14;;;;;;;3.40;2.00;;;;;;;-0.81;64.97;98751.69;104760;1273;74519;-28
2022/03/08 09:52:47;;;;;;;;;;;;;;;-0.70;63.66;98751.27;104768;1273;61435;-28
2022/03/08 09:55:16;;;;;;;20.00;9.70;;;;;;;-0.25;63.61;98747.41;104800;1273;61036;-28
2022/03/08 09:57:49;;;;;;;7.40;4.10;;;;;;;-0.30;62.18;98747.61;104663;1273;75530;-28
2022/03/08 10:00:19;;;;;;;13.70;6.80;;;;;;;-0.53;61.08;98747.02;104413;1273;76094;-28
2022/03/08 10:02:56;;;;;;;22.90;10.70;;;;;;;-0.76;60.39;98738.38;104767;1273;74381;-28
2022/03/08 10:05:43;;;;;;;2.40;1.70;;;;;;;-0.80;60.61;98743.14;104595;1273;61382;-28
2022/03/08 10:08:14;;;;;;;2.50;1.70;;;;;;;-0.83;62.26;98742.08;104480;1273;62510;-28
2022/03/08 10:10:44;;;;;;;2.50;1.90;;;;;;;-0.83;61.55;98736.92;104608;1273;74423;-28
2022/03/08 10:13:46;;;;;;;5.10;2.60;;;;;;;-0.83;59.45;98734.20;104643;1273;76162;-28
2022/03/08 10:16:16;;;;;;;2.00;1.40;;;;;;;-0.76;58.95;98736.02;104629;1273;74615;-28
2022/03/08 10:18:47;;;;;;;3.00;1.80;;;;;;;-0.60;59.26;98735.67;104797;1273;61334;-28
2022/03/08 10:21:36;;;;;;;3.60;2.10;;;;;;;-0.64;58.25;98735.86;104467;1273;61829;-28
2022/03/08 10:24:15;;;;;;;2.40;1.50;;;;;;;-0.72;55.72;98731.58;104849;1273;75556;-28
2022/03/08 10:27:05;;;;;;;1.90;1.40;;;;;;;-0.76;55.38;98725.94;104644;1273;76064;-28
2022/03/08 10:29:37;;;;;;;16.10;5.70;;;;;;;-0.60;56.57;98724.42;104580;1273;73296;-29
2022/03/08 10:32:10;;;;;;;5.00;2.40;;;;;;;-0.44;56.74;98721.57;104620;1273;61321;-28
2022/03/08 10:34:40;;;;;;;10.70;3.70;;;;;;;-0.36;54.69;98722.95;104630;1273;61140;-28
2022/03/08 10:37:14;;;;;;;2.50;1.70;;;;;;;0.10;55.56;98722.38;104793;1273;74669;-28
2022/03/08 10:39:50;;;;;;;18.70;7.10;;;;;;;0.26;53.66;98711.92;104625;1273;76002;-28
2022/03/08 10:42:27;;;;;;;6.80;2.90;;;;;;;0.77;53.19;98720.23;104620;1273;74409;-29
2022/03/08 10:45:07;;;;;;;3.10;1.60;;;;;;;0.95;51.47;98717.68;104743;1273;61171;-29
2022/03/08 10:47:43;;;;;;;4.20;2.40;;;;;;;1.23;52.29;98715.86;104649;1274;62076;-29
2022/03/08 10:50:14;;;;;;;2.90;2.10;;;;;;;1.52;50.67;98715.83;104627;1273;74585;-29
2022/03/08 10:52:44;;;;;;;11.80;4.80;;;;;;;1.54;50.14;98710.10;104500;1273;75973;-29
2022/03/08 10:55:26;;;;;;;2.40;1.50;;;;;;;1.29;51.73;98714.20;104645;1273;74369;-29
2022/03/08 10:57:57;;;;;;;2.10;1.40;;;;;;;1.09;54.49;98709.51;104444;1273;61359;-29
2022/03/08 11:00:31;;;;;;;1.20;1.10;;;;;;;0.88;57.77;98710.68;104723;1273;62080;-29
2022/03/08 11:03:05;;;;;;;3.80;2.50;;;;;;;0.70;58.45;98712.85;104367;1274;75546;-29
2022/03/08 11:05:39;;;;;;;1.70;1.30;;;;;;;0.30;56.38;98714.82;104642;1273;75810;-29
2022/03/08 11:08:09;;;;;;;3.10;1.70;;;;;;;0.36;57.22;98713.55;104680;1273;74353;-29
2022/03/08 11:10:39;;;;;;;2.00;1.50;;;;;;;-0.15;58.36;98715.41;104681;1273;61033;-29
2022/03/08 11:13:09;;;;;;;2.40;1.40;;;;;;;-0.59;60.68;98718.10;104681;1273;62280;-30
2022/03/08 11:15:39;;;;;;;2.30;1.50;;;;;;;-0.96;64.95;98714.62;104790;1273;75544;-29
2022/03/08 11:18:10;;;;;;;3.50;2.00;;;;;;;-1.01;67.67;98720.07;104661;1273;74131;-30
2022/03/08 11:20:58;;;;;;;2.10;1.80;;;;;;;-1.06;70.07;98727.95;104627;1272;74646;-28
2022/03/08 11:23:28;;;;;;;2.50;1.70;;;;;;;-1.24;70.10;98730.37;104673;1273;61477;-28
2022/03/08 11:25:57;;;;;;;2.20;1.10;;;;;;;-1.34;68.04;98728.70;104819;1273;62026;-29
2022/03/08 11:28:27;;;;;;;2.30;1.30;;;;;;;-0.80;67.88;98728.45;104715;1273;76111;-28
2022/03/08 11:30:57;;;;;;;1.90;1.10;;;;;;;-0.04;65.12;98720.23;104699;1273;76087;-28
2022/03/08 11:33:48;;;;;;;5.00;2.80;;;;;;;0.63;63.19;98717.61;104690;1273;74405;-28
2022/03/08 11:36:32;;;;;;;3.40;1.70;;;;;;;0.69;60.16;98707.12;105047;1273;61156;-29
2022/03/08 11:39:14;;;;;;;1.10;0.80;;;;;;;0.97;60.99;98709.76;104732;1273;61092;-29
2022/03/08 11:41:46;;;;;;;3.80;1.00;;;;;;;1.07;59.36;98707.73;105057;1274;74536;-29
2022/03/08 11:44:26;;;;;;;1.50;0.90;;;;;;;1.29;56.54;98697.98;104707;1273;75746;-29